sensor_id;sensor_type;location;lat;lon;timestamp;P1;durP1;ratioP1;P2;durP2;ratioP2
9334;SDS011;4706;41.844;26.082;2022-09-16T00:00:28;4.70;;;4.30;;
9334;SDS011;4706;41.844;26.082;2022-09-16T00:02:55;4.50;;;4.10;;
9334;SDS011;4706;41.844;26.082;2022-09-16T00:05:21;5.63;;;4.10;;
9334;SDS011;4706;41.844;26.082;2022-09-16T00:07:47;5.35;;;4.57;;
9334;SDS011;4706;41.844;26.082;2022-09-16T00:10:12;5.50;;;4.40;;
9334;SDS011;4706;41.844;26.082;2022-09-16T00:12:39;6.05;;;4.60;;
9334;SDS011;4706;41.844;26.082;2022-09-16T00:15:05;5.15;;;4.30;;
9334;SDS011;4706;41.844;26.082;2022-09-16T00:17:32;6.32;;;4.32;;
9334;SDS011;4706;41.844;26.082;2022-09-16T00:19:58;5.22;;;4.32;;
9334;SDS011;4706;41.844;26.082;2022-09-16T00:22:25;5.05;;;4.60;;
9334;SDS011;4706;41.844;26.082;2022-09-16T00:24:51;7.25;;;4.97;;
9334;SDS011;4706;41.844;26.082;2022-09-16T00:27:17;4.82;;;4.45;;
9334;SDS011;4706;41.844;26.082;2022-09-16T00:29:42;4.75;;;4.22;;
9334;SDS011;4706;41.844;26.082;2022-09-16T00:32:08;5.03;;;4.53;;
9334;SDS011;4706;41.844;26.082;2022-09-16T00:34:33;5.47;;;4.68;;
9334;SDS011;4706;41.844;26.082;2022-09-16T00:36:59;6.00;;;4.53;;
9334;SDS011;4706;41.844;26.082;2022-09-16T00:39:27;4.93;;;4.47;;
9334;SDS011;4706;41.844;26.082;2022-09-16T00:41:53;5.07;;;4.68;;
9334;SDS011;4706;41.844;26.082;2022-09-16T00:47:26;7.38;;;4.55;;
9334;SDS011;4706;41.844;26.082;2022-09-16T00:50:05;4.90;;;4.40;;
9334;SDS011;4706;41.844;26.082;2022-09-16T00:52:34;5.70;;;4.45;;
9334;SDS011;4706;41.844;26.082;2022-09-16T00:55:01;5.55;;;4.40;;
9334;SDS011;4706;41.844;26.082;2022-09-16T00:57:31;6.90;;;4.20;;
9334;SDS011;4706;41.844;26.082;2022-09-16T00:59:57;8.15;;;4.15;;
9334;SDS011;4706;41.844;26.082;2022-09-16T01:02:24;4.38;;;4.07;;
9334;SDS011;4706;41.844;26.082;2022-09-16T01:07:33;5.63;;;4.57;;
9334;SDS011;4706;41.844;26.082;2022-09-16T01:10:04;4.63;;;4.22;;
9334;SDS011;4706;41.844;26.082;2022-09-16T01:12:30;5.53;;;4.50;;
9334;SDS011;4706;41.844;26.082;2022-09-16T01:14:58;5.28;;;4.75;;
9334;SDS011;4706;41.844;26.082;2022-09-16T01:31:20;5.68;;;4.20;;
9334;SDS011;4706;41.844;26.082;2022-09-16T01:37:02;4.90;;;4.38;;
9334;SDS011;4706;41.844;26.082;2022-09-16T01:42:30;5.35;;;4.93;;
9334;SDS011;4706;41.844;26.082;2022-09-16T01:47:55;5.97;;;4.63;;
9334;SDS011;4706;41.844;26.082;2022-09-16T01:50:33;5.15;;;4.78;;
9334;SDS011;4706;41.844;26.082;2022-09-16T01:53:08;4.97;;;4.50;;
9334;SDS011;4706;41.844;26.082;2022-09-16T01:55:41;6.55;;;4.82;;
9334;SDS011;4706;41.844;26.082;2022-09-16T02:00:59;5.32;;;4.75;;
9334;SDS011;4706;41.844;26.082;2022-09-16T02:03:33;5.35;;;4.95;;
9334;SDS011;4706;41.844;26.082;2022-09-16T02:06:02;6.43;;;5.30;;
9334;SDS011;4706;41.844;26.082;2022-09-16T02:11:01;7.75;;;5.50;;
9334;SDS011;4706;41.844;26.082;2022-09-16T02:13:33;5.40;;;4.90;;
9334;SDS011;4706;41.844;26.082;2022-09-16T02:16:04;6.50;;;5.28;;
9334;SDS011;4706;41.844;26.082;2022-09-16T02:18:35;5.68;;;4.72;;
9334;SDS011;4706;41.844;26.082;2022-09-16T02:21:06;6.68;;;5.25;;
9334;SDS011;4706;41.844;26.082;2022-09-16T02:23:40;5.18;;;4.78;;
9334;SDS011;4706;41.844;26.082;2022-09-16T02:26:09;5.60;;;5.10;;
9334;SDS011;4706;41.844;26.082;2022-09-16T02:28:37;5.85;;;5.25;;
9334;SDS011;4706;41.844;26.082;2022-09-16T02:31:07;5.22;;;4.82;;
9334;SDS011;4706;41.844;26.082;2022-09-16T02:33:53;5.60;;;5.05;;
9334;SDS011;4706;41.844;26.082;2022-09-16T02:36:23;5.43;;;4.93;;
9334;SDS011;4706;41.844;26.082;2022-09-16T02:39:09;5.95;;;5.45;;
9334;SDS011;4706;41.844;26.082;2022-09-16T02:41:38;5.93;;;5.32;;
9334;SDS011;4706;41.844;26.082;2022-09-16T02:44:05;6.13;;;5.43;;
9334;SDS011;4706;41.844;26.082;2022-09-16T02:52:24;9.57;;;8.60;;
9334;SDS011;4706;41.844;26.082;2022-09-16T02:57:18;5.60;;;4.95;;
9334;SDS011;4706;41.844;26.082;2022-09-16T02:59:44;5.80;;;5.30;;
9334;SDS011;4706;41.844;26.082;2022-09-16T03:02:10;5.50;;;5.00;;
9334;SDS011;4706;41.844;26.082;2022-09-16T03:04:36;6.00;;;5.40;;
9334;SDS011;4706;41.844;26.082;2022-09-16T03:07:02;7.95;;;5.45;;
9334;SDS011;4706;41.844;26.082;2022-09-16T03:09:32;6.53;;;5.75;;
9334;SDS011;4706;41.844;26.082;2022-09-16T03:22:57;5.85;;;5.25;;
9334;SDS011;4706;41.844;26.082;2022-09-16T03:29:18;6.05;;;5.45;;
9334;SDS011;4706;41.844;26.082;2022-09-16T03:31:58;6.40;;;5.80;;
9334;SDS011;4706;41.844;26.082;2022-09-16T03:37:18;9.65;;;5.93;;
9334;SDS011;4706;41.844;26.082;2022-09-16T03:39:49;8.57;;;5.60;;
9334;SDS011;4706;41.844;26.082;2022-09-16T03:42:17;7.03;;;5.60;;
9334;SDS011;4706;41.844;26.082;2022-09-16T03:44:44;6.32;;;5.72;;
9334;SDS011;4706;41.844;26.082;2022-09-16T03:47:09;6.57;;;5.93;;
9334;SDS011;4706;41.844;26.082;2022-09-16T03:49:35;8.27;;;5.95;;
9334;SDS011;4706;41.844;26.082;2022-09-16T03:52:02;6.68;;;6.03;;
9334;SDS011;4706;41.844;26.082;2022-09-16T03:54:31;8.40;;;5.68;;
9334;SDS011;4706;41.844;26.082;2022-09-16T03:56:58;7.53;;;6.80;;
9334;SDS011;4706;41.844;26.082;2022-09-16T03:59:25;6.45;;;5.95;;
9334;SDS011;4706;41.844;26.082;2022-09-16T04:01:52;7.72;;;6.47;;
9334;SDS011;4706;41.844;26.082;2022-09-16T04:04:17;6.30;;;5.80;;
9334;SDS011;4706;41.844;26.082;2022-09-16T04:06:43;6.20;;;5.45;;
9334;SDS011;4706;41.844;26.082;2022-09-16T04:09:11;6.72;;;5.93;;
9334;SDS011;4706;41.844;26.082;2022-09-16T04:11:38;7.80;;;5.47;;
9334;SDS011;4706;41.844;26.082;2022-09-16T04:14:04;6.97;;;5.57;;
9334;SDS011;4706;41.844;26.082;2022-09-16T04:16:30;9.18;;;6.22;;
9334;SDS011;4706;41.844;26.082;2022-09-16T04:18:56;7.97;;;6.18;;
9334;SDS011;4706;41.844;26.082;2022-09-16T04:21:21;6.93;;;6.22;;
9334;SDS011;4706;41.844;26.082;2022-09-16T04:23:48;7.95;;;7.25;;
9334;SDS011;4706;41.844;26.082;2022-09-16T04:26:13;8.43;;;6.97;;
9334;SDS011;4706;41.844;26.082;2022-09-16T04:28:39;7.32;;;6.55;;
9334;SDS011;4706;41.844;26.082;2022-09-16T04:31:05;9.25;;;6.15;;
9334;SDS011;4706;41.844;26.082;2022-09-16T04:33:34;8.15;;;6.50;;
9334;SDS011;4706;41.844;26.082;2022-09-16T04:36:01;7.80;;;6.78;;
9334;SDS011;4706;41.844;26.082;2022-09-16T04:38:30;9.57;;;6.60;;
9334;SDS011;4706;41.844;26.082;2022-09-16T04:43:54;7.53;;;6.15;;
9334;SDS011;4706;41.844;26.082;2022-09-16T04:46:22;8.07;;;7.32;;
9334;SDS011;4706;41.844;26.082;2022-09-16T04:48:49;9.20;;;7.45;;
9334;SDS011;4706;41.844;26.082;2022-09-16T04:51:16;8.15;;;6.85;;
9334;SDS011;4706;41.844;26.082;2022-09-16T04:53:42;9.30;;;8.30;;
9334;SDS011;4706;41.844;26.082;2022-09-16T04:56:18;14.18;;;7.85;;
9334;SDS011;4706;41.844;26.082;2022-09-16T04:58:46;10.73;;;7.78;;
9334;SDS011;4706;41.844;26.082;2022-09-16T05:01:17;9.95;;;7.63;;
9334;SDS011;4706;41.844;26.082;2022-09-16T05:03:45;9.80;;;7.22;;
9334;SDS011;4706;41.844;26.082;2022-09-16T05:06:13;11.02;;;7.57;;
9334;SDS011;4706;41.844;26.082;2022-09-16T05:08:40;11.13;;;7.32;;
9334;SDS011;4706;41.844;26.082;2022-09-16T05:11:07;10.05;;;7.70;;
9334;SDS011;4706;41.844;26.082;2022-09-16T05:13:37;10.77;;;7.75;;
9334;SDS011;4706;41.844;26.082;2022-09-16T05:16:04;15.30;;;7.78;;
9334;SDS011;4706;41.844;26.082;2022-09-16T05:18:32;8.35;;;7.20;;
9334;SDS011;4706;41.844;26.082;2022-09-16T05:20:59;8.90;;;7.65;;
9334;SDS011;4706;41.844;26.082;2022-09-16T05:23:25;47.80;;;42.58;;
9334;SDS011;4706;41.844;26.082;2022-09-16T05:25:51;33.42;;;30.02;;
9334;SDS011;4706;41.844;26.082;2022-09-16T05:28:18;37.25;;;33.70;;
9334;SDS011;4706;41.844;26.082;2022-09-16T05:30:43;33.42;;;29.35;;
9334;SDS011;4706;41.844;26.082;2022-09-16T05:33:09;16.75;;;14.85;;
9334;SDS011;4706;41.844;26.082;2022-09-16T05:35:34;20.83;;;16.40;;
9334;SDS011;4706;41.844;26.082;2022-09-16T05:38:00;14.10;;;11.27;;
9334;SDS011;4706;41.844;26.082;2022-09-16T05:40:25;12.43;;;11.25;;
9334;SDS011;4706;41.844;26.082;2022-09-16T05:42:54;10.82;;;9.50;;
9334;SDS011;4706;41.844;26.082;2022-09-16T05:45:20;9.73;;;8.85;;
9334;SDS011;4706;41.844;26.082;2022-09-16T05:47:49;10.50;;;8.73;;
9334;SDS011;4706;41.844;26.082;2022-09-16T05:50:15;9.48;;;8.32;;
9334;SDS011;4706;41.844;26.082;2022-09-16T05:52:41;9.30;;;7.28;;
9334;SDS011;4706;41.844;26.082;2022-09-16T05:55:06;8.25;;;6.53;;
9334;SDS011;4706;41.844;26.082;2022-09-16T05:57:32;7.43;;;6.72;;
9334;SDS011;4706;41.844;26.082;2022-09-16T05:59:58;7.53;;;6.05;;
9334;SDS011;4706;41.844;26.082;2022-09-16T06:02:23;6.55;;;5.60;;
9334;SDS011;4706;41.844;26.082;2022-09-16T06:04:49;6.25;;;5.65;;
9334;SDS011;4706;41.844;26.082;2022-09-16T06:07:15;7.05;;;6.35;;
9334;SDS011;4706;41.844;26.082;2022-09-16T06:09:41;6.85;;;6.20;;
9334;SDS011;4706;41.844;26.082;2022-09-16T06:12:07;6.63;;;5.25;;
9334;SDS011;4706;41.844;26.082;2022-09-16T06:14:34;6.90;;;5.90;;
9334;SDS011;4706;41.844;26.082;2022-09-16T06:16:59;5.72;;;5.20;;
9334;SDS011;4706;41.844;26.082;2022-09-16T06:19:25;7.63;;;5.18;;
9334;SDS011;4706;41.844;26.082;2022-09-16T06:21:51;7.13;;;5.40;;
9334;SDS011;4706;41.844;26.082;2022-09-16T06:24:17;8.25;;;5.88;;
9334;SDS011;4706;41.844;26.082;2022-09-16T06:26:44;17.58;;;6.15;;
9334;SDS011;4706;41.844;26.082;2022-09-16T06:29:12;7.15;;;6.07;;
9334;SDS011;4706;41.844;26.082;2022-09-16T06:31:38;7.43;;;5.30;;
9334;SDS011;4706;41.844;26.082;2022-09-16T06:34:05;11.65;;;8.85;;
9334;SDS011;4706;41.844;26.082;2022-09-16T06:36:32;7.47;;;4.85;;
9334;SDS011;4706;41.844;26.082;2022-09-16T06:39:00;5.72;;;5.15;;
9334;SDS011;4706;41.844;26.082;2022-09-16T06:41:26;7.13;;;5.22;;
9334;SDS011;4706;41.844;26.082;2022-09-16T06:43:52;7.68;;;5.03;;
9334;SDS011;4706;41.844;26.082;2022-09-16T06:46:22;5.13;;;4.72;;
9334;SDS011;4706;41.844;26.082;2022-09-16T06:48:50;6.60;;;4.57;;
9334;SDS011;4706;41.844;26.082;2022-09-16T06:51:18;5.90;;;4.80;;
9334;SDS011;4706;41.844;26.082;2022-09-16T06:53:47;6.38;;;4.85;;
9334;SDS011;4706;41.844;26.082;2022-09-16T06:56:14;5.72;;;4.20;;
9334;SDS011;4706;41.844;26.082;2022-09-16T06:58:42;4.88;;;4.45;;
9334;SDS011;4706;41.844;26.082;2022-09-16T07:01:09;5.22;;;4.10;;
9334;SDS011;4706;41.844;26.082;2022-09-16T07:03:36;7.68;;;4.25;;
9334;SDS011;4706;41.844;26.082;2022-09-16T07:06:03;5.13;;;4.32;;
9334;SDS011;4706;41.844;26.082;2022-09-16T07:08:30;7.38;;;4.47;;
9334;SDS011;4706;41.844;26.082;2022-09-16T07:11:01;6.40;;;4.43;;
9334;SDS011;4706;41.844;26.082;2022-09-16T07:13:29;7.50;;;4.25;;
9334;SDS011;4706;41.844;26.082;2022-09-16T07:15:58;5.55;;;4.70;;
9334;SDS011;4706;41.844;26.082;2022-09-16T07:18:25;6.13;;;4.18;;
9334;SDS011;4706;41.844;26.082;2022-09-16T07:20:51;6.63;;;4.28;;
9334;SDS011;4706;41.844;26.082;2022-09-16T07:23:17;6.15;;;4.68;;
9334;SDS011;4706;41.844;26.082;2022-09-16T07:25:43;4.63;;;4.05;;
9334;SDS011;4706;41.844;26.082;2022-09-16T07:28:09;6.53;;;3.80;;
9334;SDS011;4706;41.844;26.082;2022-09-16T07:30:34;4.80;;;4.00;;
9334;SDS011;4706;41.844;26.082;2022-09-16T07:33:00;6.00;;;3.83;;
9334;SDS011;4706;41.844;26.082;2022-09-16T07:35:25;4.93;;;4.47;;
9334;SDS011;4706;41.844;26.082;2022-09-16T07:37:51;6.18;;;4.57;;
9334;SDS011;4706;41.844;26.082;2022-09-16T07:40:17;7.15;;;4.55;;
9334;SDS011;4706;41.844;26.082;2022-09-16T07:42:43;4.82;;;4.20;;
9334;SDS011;4706;41.844;26.082;2022-09-16T07:45:08;4.85;;;4.07;;
9334;SDS011;4706;41.844;26.082;2022-09-16T07:47:34;5.20;;;3.83;;
9334;SDS011;4706;41.844;26.082;2022-09-16T07:49:59;4.25;;;3.75;;
9334;SDS011;4706;41.844;26.082;2022-09-16T07:52:25;4.50;;;4.10;;
9334;SDS011;4706;41.844;26.082;2022-09-16T07:54:56;8.45;;;4.63;;
9334;SDS011;4706;41.844;26.082;2022-09-16T07:57:22;4.82;;;3.35;;
9334;SDS011;4706;41.844;26.082;2022-09-16T07:59:48;5.45;;;3.90;;
9334;SDS011;4706;41.844;26.082;2022-09-16T08:02:14;4.05;;;3.65;;
9334;SDS011;4706;41.844;26.082;2022-09-16T08:04:40;4.65;;;3.40;;
9334;SDS011;4706;41.844;26.082;2022-09-16T08:07:06;4.30;;;3.95;;
9334;SDS011;4706;41.844;26.082;2022-09-16T08:09:32;4.40;;;3.63;;
9334;SDS011;4706;41.844;26.082;2022-09-16T08:11:58;5.22;;;3.58;;
9334;SDS011;4706;41.844;26.082;2022-09-16T08:14:25;4.28;;;3.58;;
9334;SDS011;4706;41.844;26.082;2022-09-16T08:16:51;8.63;;;3.92;;
9334;SDS011;4706;41.844;26.082;2022-09-16T08:19:16;4.53;;;3.58;;
9334;SDS011;4706;41.844;26.082;2022-09-16T08:21:43;4.53;;;3.80;;
9334;SDS011;4706;41.844;26.082;2022-09-16T08:24:09;4.72;;;4.07;;
9334;SDS011;4706;41.844;26.082;2022-09-16T08:26:35;5.28;;;3.70;;
9334;SDS011;4706;41.844;26.082;2022-09-16T08:29:00;5.88;;;5.22;;
9334;SDS011;4706;41.844;26.082;2022-09-16T08:31:26;4.78;;;4.18;;
9334;SDS011;4706;41.844;26.082;2022-09-16T08:33:52;4.00;;;3.60;;
9334;SDS011;4706;41.844;26.082;2022-09-16T08:36:19;7.05;;;3.95;;
9334;SDS011;4706;41.844;26.082;2022-09-16T08:38:46;7.80;;;3.78;;
9334;SDS011;4706;41.844;26.082;2022-09-16T08:46:59;4.75;;;4.05;;
9334;SDS011;4706;41.844;26.082;2022-09-16T08:51:57;6.43;;;3.70;;
9334;SDS011;4706;41.844;26.082;2022-09-16T08:54:29;7.28;;;3.72;;
9334;SDS011;4706;41.844;26.082;2022-09-16T08:57:03;9.07;;;3.90;;
9334;SDS011;4706;41.844;26.082;2022-09-16T08:59:34;5.03;;;3.40;;
9334;SDS011;4706;41.844;26.082;2022-09-16T09:13:34;6.22;;;3.50;;
9334;SDS011;4706;41.844;26.082;2022-09-16T09:16:06;5.80;;;3.58;;
9334;SDS011;4706;41.844;26.082;2022-09-16T09:19:11;4.13;;;3.80;;
9334;SDS011;4706;41.844;26.082;2022-09-16T09:27:05;5.43;;;3.22;;
9334;SDS011;4706;41.844;26.082;2022-09-16T09:40:08;7.22;;;3.50;;
9334;SDS011;4706;41.844;26.082;2022-09-16T09:42:35;3.75;;;3.35;;
9334;SDS011;4706;41.844;26.082;2022-09-16T09:47:43;5.28;;;3.35;;
9334;SDS011;4706;41.844;26.082;2022-09-16T09:50:17;5.47;;;3.15;;
9334;SDS011;4706;41.844;26.082;2022-09-16T09:52:51;5.13;;;3.15;;
9334;SDS011;4706;41.844;26.082;2022-09-16T09:55:20;3.50;;;3.20;;
9334;SDS011;4706;41.844;26.082;2022-09-16T09:58:03;4.40;;;3.47;;
9334;SDS011;4706;41.844;26.082;2022-09-16T10:00:34;6.15;;;3.40;;
9334;SDS011;4706;41.844;26.082;2022-09-16T10:03:10;3.50;;;3.20;;
9334;SDS011;4706;41.844;26.082;2022-09-16T10:05:38;4.00;;;3.13;;
9334;SDS011;4706;41.844;26.082;2022-09-16T10:10:52;5.35;;;3.15;;
9334;SDS011;4706;41.844;26.082;2022-09-16T10:13:20;5.30;;;3.50;;
9334;SDS011;4706;41.844;26.082;2022-09-16T10:15:47;4.68;;;3.40;;
9334;SDS011;4706;41.844;26.082;2022-09-16T10:18:27;3.53;;;2.95;;
9334;SDS011;4706;41.844;26.082;2022-09-16T10:20:57;4.15;;;3.28;;
9334;SDS011;4706;41.844;26.082;2022-09-16T10:23:29;5.15;;;3.40;;
9334;SDS011;4706;41.844;26.082;2022-09-16T10:31:20;7.75;;;3.55;;
9334;SDS011;4706;41.844;26.082;2022-09-16T10:33:48;4.75;;;3.20;;
9334;SDS011;4706;41.844;26.082;2022-09-16T10:36:18;8.70;;;3.42;;
9334;SDS011;4706;41.844;26.082;2022-09-16T10:38:48;11.77;;;3.85;;
9334;SDS011;4706;41.844;26.082;2022-09-16T10:41:24;8.00;;;3.05;;
9334;SDS011;4706;41.844;26.082;2022-09-16T10:43:53;7.60;;;3.05;;
9334;SDS011;4706;41.844;26.082;2022-09-16T10:46:21;7.38;;;3.45;;
9334;SDS011;4706;41.844;26.082;2022-09-16T10:48:47;7.80;;;3.05;;
9334;SDS011;4706;41.844;26.082;2022-09-16T10:51:29;5.82;;;2.88;;
9334;SDS011;4706;41.844;26.082;2022-09-16T10:53:56;7.20;;;3.20;;
9334;SDS011;4706;41.844;26.082;2022-09-16T10:56:25;7.10;;;3.55;;
9334;SDS011;4706;41.844;26.082;2022-09-16T11:12:32;7.53;;;3.47;;
9334;SDS011;4706;41.844;26.082;2022-09-16T11:15:13;9.70;;;3.25;;
9334;SDS011;4706;41.844;26.082;2022-09-16T11:18:03;6.70;;;3.15;;
9334;SDS011;4706;41.844;26.082;2022-09-16T11:23:15;9.25;;;3.30;;
9334;SDS011;4706;41.844;26.082;2022-09-16T11:41:33;4.97;;;3.00;;
9334;SDS011;4706;41.844;26.082;2022-09-16T11:44:25;6.55;;;2.70;;
9334;SDS011;4706;41.844;26.082;2022-09-16T11:47:13;6.55;;;3.17;;
9334;SDS011;4706;41.844;26.082;2022-09-16T11:55:31;8.05;;;3.45;;
9334;SDS011;4706;41.844;26.082;2022-09-16T11:58:19;7.85;;;3.30;;
9334;SDS011;4706;41.844;26.082;2022-09-16T12:00:48;7.53;;;2.85;;
9334;SDS011;4706;41.844;26.082;2022-09-16T12:06:13;6.63;;;2.78;;
9334;SDS011;4706;41.844;26.082;2022-09-16T12:08:51;5.53;;;2.80;;
9334;SDS011;4706;41.844;26.082;2022-09-16T12:11:29;7.20;;;3.22;;
9334;SDS011;4706;41.844;26.082;2022-09-16T12:14:03;5.97;;;3.00;;
9334;SDS011;4706;41.844;26.082;2022-09-16T12:16:41;5.05;;;2.70;;
9334;SDS011;4706;41.844;26.082;2022-09-16T12:25:27;5.72;;;3.05;;
9334;SDS011;4706;41.844;26.082;2022-09-16T12:28:01;8.48;;;3.03;;
9334;SDS011;4706;41.844;26.082;2022-09-16T12:30:35;5.13;;;2.88;;
9334;SDS011;4706;41.844;26.082;2022-09-16T12:33:06;6.78;;;2.58;;
9334;SDS011;4706;41.844;26.082;2022-09-16T12:35:39;7.10;;;3.00;;
9334;SDS011;4706;41.844;26.082;2022-09-16T12:38:19;6.65;;;3.08;;
9334;SDS011;4706;41.844;26.082;2022-09-16T12:41:05;9.75;;;2.97;;
9334;SDS011;4706;41.844;26.082;2022-09-16T12:43:49;8.63;;;3.25;;
9334;SDS011;4706;41.844;26.082;2022-09-16T12:51:49;4.07;;;2.80;;
9334;SDS011;4706;41.844;26.082;2022-09-16T13:02:15;8.85;;;3.20;;
9334;SDS011;4706;41.844;26.082;2022-09-16T13:04:47;7.05;;;3.10;;
9334;SDS011;4706;41.844;26.082;2022-09-16T13:07:20;7.13;;;2.95;;
9334;SDS011;4706;41.844;26.082;2022-09-16T13:10:17;5.93;;;3.10;;
9334;SDS011;4706;41.844;26.082;2022-09-16T13:12:50;5.72;;;2.97;;
9334;SDS011;4706;41.844;26.082;2022-09-16T13:15:26;7.05;;;3.17;;
9334;SDS011;4706;41.844;26.082;2022-09-16T13:21:18;8.27;;;3.00;;
9334;SDS011;4706;41.844;26.082;2022-09-16T13:23:47;8.90;;;3.47;;
9334;SDS011;4706;41.844;26.082;2022-09-16T13:26:22;5.07;;;2.90;;
9334;SDS011;4706;41.844;26.082;2022-09-16T13:28:47;9.35;;;3.53;;
9334;SDS011;4706;41.844;26.082;2022-09-16T13:33:41;6.60;;;3.08;;
9334;SDS011;4706;41.844;26.082;2022-09-16T13:38:52;5.43;;;3.20;;
9334;SDS011;4706;41.844;26.082;2022-09-16T13:41:30;6.88;;;3.10;;
9334;SDS011;4706;41.844;26.082;2022-09-16T13:46:50;5.90;;;3.63;;
9334;SDS011;4706;41.844;26.082;2022-09-16T13:49:25;6.57;;;3.60;;
9334;SDS011;4706;41.844;26.082;2022-09-16T13:51:52;7.40;;;3.33;;
9334;SDS011;4706;41.844;26.082;2022-09-16T14:02:49;9.13;;;3.80;;
9334;SDS011;4706;41.844;26.082;2022-09-16T14:13:20;7.18;;;3.85;;
9334;SDS011;4706;41.844;26.082;2022-09-16T14:15:51;8.07;;;3.75;;
9334;SDS011;4706;41.844;26.082;2022-09-16T14:18:24;6.05;;;3.78;;
9334;SDS011;4706;41.844;26.082;2022-09-16T14:23:32;8.52;;;3.30;;
9334;SDS011;4706;41.844;26.082;2022-09-16T14:26:14;10.18;;;3.63;;
9334;SDS011;4706;41.844;26.082;2022-09-16T14:28:43;10.68;;;3.42;;
9334;SDS011;4706;41.844;26.082;2022-09-16T14:31:14;8.25;;;3.50;;
9334;SDS011;4706;41.844;26.082;2022-09-16T14:33:45;13.05;;;4.70;;
9334;SDS011;4706;41.844;26.082;2022-09-16T14:36:22;9.38;;;3.35;;
9334;SDS011;4706;41.844;26.082;2022-09-16T14:41:31;12.73;;;5.70;;
9334;SDS011;4706;41.844;26.082;2022-09-16T14:44:09;8.18;;;3.60;;
9334;SDS011;4706;41.844;26.082;2022-09-16T14:47:05;12.13;;;3.83;;
9334;SDS011;4706;41.844;26.082;2022-09-16T14:49:41;9.82;;;2.78;;
9334;SDS011;4706;41.844;26.082;2022-09-16T14:52:20;11.63;;;4.30;;
9334;SDS011;4706;41.844;26.082;2022-09-16T14:54:50;14.90;;;6.53;;
9334;SDS011;4706;41.844;26.082;2022-09-16T14:57:18;8.68;;;3.63;;
9334;SDS011;4706;41.844;26.082;2022-09-16T14:59:47;10.90;;;3.47;;
9334;SDS011;4706;41.844;26.082;2022-09-16T15:04:54;12.63;;;3.72;;
9334;SDS011;4706;41.844;26.082;2022-09-16T15:07:25;10.63;;;3.47;;
9334;SDS011;4706;41.844;26.082;2022-09-16T15:12:32;8.25;;;3.22;;
9334;SDS011;4706;41.844;26.082;2022-09-16T15:15:23;7.97;;;3.38;;
9334;SDS011;4706;41.844;26.082;2022-09-16T15:17:58;11.13;;;4.53;;
9334;SDS011;4706;41.844;26.082;2022-09-16T15:20:25;12.95;;;5.80;;
9334;SDS011;4706;41.844;26.082;2022-09-16T15:22:54;9.13;;;3.42;;
9334;SDS011;4706;41.844;26.082;2022-09-16T15:25:21;12.70;;;3.80;;
9334;SDS011;4706;41.844;26.082;2022-09-16T15:28:04;12.43;;;3.92;;
9334;SDS011;4706;41.844;26.082;2022-09-16T15:30:48;14.27;;;6.45;;
9334;SDS011;4706;41.844;26.082;2022-09-16T15:33:23;12.27;;;4.25;;
9334;SDS011;4706;41.844;26.082;2022-09-16T15:36:05;6.88;;;3.53;;
9334;SDS011;4706;41.844;26.082;2022-09-16T15:38:32;12.35;;;4.05;;
9334;SDS011;4706;41.844;26.082;2022-09-16T15:41:05;8.68;;;3.55;;
9334;SDS011;4706;41.844;26.082;2022-09-16T15:43:36;7.38;;;3.85;;
9334;SDS011;4706;41.844;26.082;2022-09-16T15:46:11;12.82;;;7.00;;
9334;SDS011;4706;41.844;26.082;2022-09-16T15:48:50;15.98;;;8.75;;
9334;SDS011;4706;41.844;26.082;2022-09-16T15:51:38;14.40;;;8.73;;
9334;SDS011;4706;41.844;26.082;2022-09-16T15:54:20;11.60;;;5.47;;
9334;SDS011;4706;41.844;26.082;2022-09-16T15:56:54;9.88;;;3.90;;
9334;SDS011;4706;41.844;26.082;2022-09-16T15:59:31;14.65;;;4.75;;
9334;SDS011;4706;41.844;26.082;2022-09-16T16:02:28;8.77;;;3.60;;
9334;SDS011;4706;41.844;26.082;2022-09-16T16:05:11;12.27;;;6.15;;
9334;SDS011;4706;41.844;26.082;2022-09-16T16:07:44;11.00;;;5.00;;
9334;SDS011;4706;41.844;26.082;2022-09-16T16:12:41;13.80;;;4.47;;
9334;SDS011;4706;41.844;26.082;2022-09-16T16:15:11;20.02;;;4.10;;
9334;SDS011;4706;41.844;26.082;2022-09-16T16:17:37;19.15;;;4.60;;
9334;SDS011;4706;41.844;26.082;2022-09-16T16:20:03;19.92;;;5.20;;
9334;SDS011;4706;41.844;26.082;2022-09-16T16:22:29;14.98;;;3.83;;
9334;SDS011;4706;41.844;26.082;2022-09-16T16:24:55;17.13;;;5.25;;
9334;SDS011;4706;41.844;26.082;2022-09-16T16:27:21;17.40;;;4.32;;
9334;SDS011;4706;41.844;26.082;2022-09-16T16:29:46;14.68;;;3.72;;
9334;SDS011;4706;41.844;26.082;2022-09-16T16:32:12;15.90;;;4.75;;
9334;SDS011;4706;41.844;26.082;2022-09-16T16:34:43;18.20;;;3.88;;
9334;SDS011;4706;41.844;26.082;2022-09-16T16:37:12;14.18;;;4.40;;
9334;SDS011;4706;41.844;26.082;2022-09-16T16:39:39;15.15;;;4.18;;
9334;SDS011;4706;41.844;26.082;2022-09-16T16:42:05;19.48;;;4.97;;
9334;SDS011;4706;41.844;26.082;2022-09-16T16:44:32;13.70;;;3.92;;
9334;SDS011;4706;41.844;26.082;2022-09-16T16:46:58;17.05;;;4.07;;
9334;SDS011;4706;41.844;26.082;2022-09-16T16:49:25;17.30;;;4.82;;
9334;SDS011;4706;41.844;26.082;2022-09-16T16:51:51;12.20;;;4.15;;
9334;SDS011;4706;41.844;26.082;2022-09-16T16:54:19;19.92;;;4.40;;
9334;SDS011;4706;41.844;26.082;2022-09-16T16:56:45;14.63;;;4.82;;
9334;SDS011;4706;41.844;26.082;2022-09-16T16:59:12;14.52;;;4.10;;
9334;SDS011;4706;41.844;26.082;2022-09-16T17:01:38;9.55;;;3.70;;
9334;SDS011;4706;41.844;26.082;2022-09-16T17:04:04;12.88;;;3.75;;
9334;SDS011;4706;41.844;26.082;2022-09-16T17:06:31;16.33;;;4.40;;
9334;SDS011;4706;41.844;26.082;2022-09-16T17:08:58;14.23;;;3.67;;
9334;SDS011;4706;41.844;26.082;2022-09-16T17:11:24;13.68;;;3.97;;
9334;SDS011;4706;41.844;26.082;2022-09-16T17:13:51;13.15;;;4.43;;
9334;SDS011;4706;41.844;26.082;2022-09-16T17:16:19;8.93;;;3.70;;
9334;SDS011;4706;41.844;26.082;2022-09-16T17:18:46;11.73;;;3.65;;
9334;SDS011;4706;41.844;26.082;2022-09-16T17:21:14;11.70;;;3.47;;
9334;SDS011;4706;41.844;26.082;2022-09-16T17:23:44;15.60;;;4.13;;
9334;SDS011;4706;41.844;26.082;2022-09-16T17:26:10;12.65;;;3.83;;
9334;SDS011;4706;41.844;26.082;2022-09-16T17:28:37;13.25;;;4.20;;
9334;SDS011;4706;41.844;26.082;2022-09-16T17:31:07;11.13;;;3.45;;
9334;SDS011;4706;41.844;26.082;2022-09-16T17:33:48;13.13;;;3.90;;
9334;SDS011;4706;41.844;26.082;2022-09-16T17:36:17;10.55;;;4.07;;
9334;SDS011;4706;41.844;26.082;2022-09-16T17:38:53;10.07;;;3.47;;
9334;SDS011;4706;41.844;26.082;2022-09-16T17:41:21;11.73;;;3.80;;
9334;SDS011;4706;41.844;26.082;2022-09-16T17:43:48;8.68;;;3.92;;
9334;SDS011;4706;41.844;26.082;2022-09-16T17:46:14;14.15;;;4.15;;
9334;SDS011;4706;41.844;26.082;2022-09-16T17:48:42;8.65;;;3.85;;
9334;SDS011;4706;41.844;26.082;2022-09-16T17:51:08;8.40;;;3.95;;
9334;SDS011;4706;41.844;26.082;2022-09-16T17:53:34;9.50;;;3.85;;
9334;SDS011;4706;41.844;26.082;2022-09-16T17:56:04;11.07;;;3.47;;
9334;SDS011;4706;41.844;26.082;2022-09-16T17:58:37;14.45;;;3.80;;
9334;SDS011;4706;41.844;26.082;2022-09-16T18:01:08;9.18;;;3.45;;
9334;SDS011;4706;41.844;26.082;2022-09-16T18:03:34;7.00;;;3.42;;
9334;SDS011;4706;41.844;26.082;2022-09-16T18:06:02;9.00;;;3.60;;
9334;SDS011;4706;41.844;26.082;2022-09-16T18:08:32;9.32;;;3.50;;
9334;SDS011;4706;41.844;26.082;2022-09-16T18:10:58;9.63;;;3.58;;
9334;SDS011;4706;41.844;26.082;2022-09-16T18:13:23;10.38;;;3.70;;
9334;SDS011;4706;41.844;26.082;2022-09-16T18:15:49;9.77;;;3.45;;
9334;SDS011;4706;41.844;26.082;2022-09-16T18:18:15;9.27;;;3.85;;
9334;SDS011;4706;41.844;26.082;2022-09-16T18:20:42;10.80;;;4.90;;
9334;SDS011;4706;41.844;26.082;2022-09-16T18:23:08;11.15;;;3.65;;
9334;SDS011;4706;41.844;26.082;2022-09-16T18:25:37;8.60;;;3.28;;
9334;SDS011;4706;41.844;26.082;2022-09-16T18:28:03;10.38;;;3.33;;
9334;SDS011;4706;41.844;26.082;2022-09-16T18:30:28;8.48;;;3.40;;
9334;SDS011;4706;41.844;26.082;2022-09-16T18:32:54;9.80;;;3.55;;
9334;SDS011;4706;41.844;26.082;2022-09-16T18:35:20;9.18;;;3.33;;
9334;SDS011;4706;41.844;26.082;2022-09-16T18:37:46;7.15;;;3.13;;
9334;SDS011;4706;41.844;26.082;2022-09-16T18:40:11;9.30;;;3.42;;
9334;SDS011;4706;41.844;26.082;2022-09-16T18:42:37;11.43;;;3.47;;